sensor_id;sensor_type;location;lat;lon;timestamp;pressure;altitude;pressure_sealevel;temperature;humidity
70229;BME280;57617;51.988;5.854;2023-04-15T00:01:58;100405.03;;;13.66;46.00
70229;BME280;57617;51.988;5.854;2023-04-15T00:04:24;100417.31;;;13.63;46.19
70229;BME280;57617;51.988;5.854;2023-04-15T00:06:50;100409.69;;;13.60;46.25
70229;BME280;57617;51.988;5.854;2023-04-15T00:09:17;100405.59;;;13.58;45.99
70229;BME280;57617;51.988;5.854;2023-04-15T00:11:43;100409.69;;;13.60;46.30
70229;BME280;57617;51.988;5.854;2023-04-15T00:14:09;100402.88;;;13.58;46.09
70229;BME280;57617;51.988;5.854;2023-04-15T00:16:34;100413.22;;;13.56;46.85
70229;BME280;57617;51.988;5.854;2023-04-15T00:19:00;100404.22;;;13.50;46.61
70229;BME280;57617;51.988;5.854;2023-04-15T00:21:25;100401.75;;;13.49;46.47
70229;BME280;57617;51.988;5.854;2023-04-15T00:23:51;100406.66;;;13.47;46.25
70229;BME280;57617;51.988;5.854;2023-04-15T00:26:17;100405.84;;;13.46;46.73
70229;BME280;57617;51.988;5.854;2023-04-15T00:28:43;100405.00;;;13.46;47.13
70229;BME280;57617;51.988;5.854;2023-04-15T00:31:09;100407.22;;;13.49;47.28
70229;BME280;57617;51.988;5.854;2023-04-15T00:33:34;100408.56;;;13.46;46.96
70229;BME280;57617;51.988;5.854;2023-04-15T00:36:00;100409.66;;;13.45;46.91
70229;BME280;57617;51.988;5.854;2023-04-15T00:38:27;100404.72;;;13.42;47.39
70229;BME280;57617;51.988;5.854;2023-04-15T00:40:52;100408.56;;;13.41;47.54
70229;BME280;57617;51.988;5.854;2023-04-15T00:43:17;100404.44;;;13.39;47.64
70229;BME280;57617;51.988;5.854;2023-04-15T00:45:43;100406.91;;;13.35;47.45
70229;BME280;57617;51.988;5.854;2023-04-15T00:48:08;100402.53;;;13.34;47.38
70229;BME280;57617;51.988;5.854;2023-04-15T00:50:35;100404.97;;;13.31;47.80
70229;BME280;57617;51.988;5.854;2023-04-15T00:53:00;100405.78;;;13.26;48.15
70229;BME280;57617;51.988;5.854;2023-04-15T00:55:26;100407.69;;;13.21;48.00
70229;BME280;57617;51.988;5.854;2023-04-15T00:57:52;100374.06;;;13.00;48.43
70229;BME280;57617;51.988;5.854;2023-04-15T01:00:17;100406.28;;;13.13;48.22
70229;BME280;57617;51.988;5.854;2023-04-15T01:02:44;100405.72;;;13.11;48.52
70229;BME280;57617;51.988;5.854;2023-04-15T01:05:10;100396.41;;;13.02;48.61
70229;BME280;57617;51.988;5.854;2023-04-15T01:07:35;100412.53;;;13.09;48.69
70229;BME280;57617;51.988;5.854;2023-04-15T01:10:02;100408.44;;;13.06;48.63
70229;BME280;57617;51.988;5.854;2023-04-15T01:12:28;100410.03;;;13.02;48.81
70229;BME280;57617;51.988;5.854;2023-04-15T01:14:54;100403.22;;;13.00;48.73
70229;BME280;57617;51.988;5.854;2023-04-15T01:17:20;100404.31;;;12.99;49.14
70229;BME280;57617;51.988;5.854;2023-04-15T01:19:45;100412.75;;;12.97;49.03
70229;BME280;57617;51.988;5.854;2023-04-15T01:22:11;100411.69;;;12.98;49.69
70229;BME280;57617;51.988;5.854;2023-04-15T01:24:36;100417.13;;;12.98;49.32
70229;BME280;57617;51.988;5.854;2023-04-15T01:27:03;100416.03;;;12.99;49.50
70229;BME280;57617;51.988;5.854;2023-04-15T01:29:30;100414.66;;;12.97;49.58
70229;BME280;57617;51.988;5.854;2023-04-15T01:31:55;100411.69;;;12.98;49.38
70229;BME280;57617;51.988;5.854;2023-04-15T01:34:21;100413.84;;;12.96;49.43
70229;BME280;57617;51.988;5.854;2023-04-15T01:36:47;100411.34;;;12.95;49.72
70229;BME280;57617;51.988;5.854;2023-04-15T01:39:12;100408.06;;;12.93;49.46
70229;BME280;57617;51.988;5.854;2023-04-15T01:41:37;100409.69;;;12.94;49.98
70229;BME280;57617;51.988;5.854;2023-04-15T01:44:03;100401.78;;;12.92;49.66
70229;BME280;57617;51.988;5.854;2023-04-15T01:46:28;100405.59;;;12.91;49.58
70229;BME280;57617;51.988;5.854;2023-04-15T01:48:54;100419.81;;;12.93;49.82
70229;BME280;57617;51.988;5.854;2023-04-15T01:51:20;100416.25;;;12.93;50.09
70229;BME280;57617;51.988;5.854;2023-04-15T01:53:46;100416.50;;;12.91;50.25
70229;BME280;57617;51.988;5.854;2023-04-15T01:56:11;100414.03;;;12.90;49.93
70229;BME280;57617;51.988;5.854;2023-04-15T01:58:36;100415.97;;;12.89;49.86
70229;BME280;57617;51.988;5.854;2023-04-15T02:01:02;100417.34;;;12.92;50.07
70229;BME280;57617;51.988;5.854;2023-04-15T02:03:28;100416.50;;;12.91;50.09
70229;BME280;57617;51.988;5.854;2023-04-15T02:05:53;100416.50;;;12.91;50.17
70229;BME280;57617;51.988;5.854;2023-04-15T02:08:19;100415.97;;;12.89;50.12
70229;BME280;57617;51.988;5.854;2023-04-15T02:10:44;100411.88;;;12.87;50.10
70229;BME280;57617;51.988;5.854;2023-04-15T02:13:09;100412.94;;;12.86;50.41
70229;BME280;57617;51.988;5.854;2023-04-15T02:15:35;100421.41;;;12.89;50.17
70229;BME280;57617;51.988;5.854;2023-04-15T02:18:00;100412.38;;;12.84;50.30
70229;BME280;57617;51.988;5.854;2023-04-15T02:20:26;100415.94;;;12.84;50.30
70229;BME280;57617;51.988;5.854;2023-04-15T02:22:51;100425.47;;;12.82;50.77
70229;BME280;57617;51.988;5.854;2023-04-15T02:25:16;100419.16;;;12.76;50.68
70229;BME280;57617;51.988;5.854;2023-04-15T02:27:42;100421.59;;;12.73;50.57
70229;BME280;57617;51.988;5.854;2023-04-15T02:30:08;100422.38;;;12.63;50.97
70229;BME280;57617;51.988;5.854;2023-04-15T02:32:34;100427.22;;;12.56;51.24
70229;BME280;57617;51.988;5.854;2023-04-15T02:35:04;100433.72;;;12.50;51.75
70229;BME280;57617;51.988;5.854;2023-04-15T02:37:30;100439.13;;;12.45;50.63
70229;BME280;57617;51.988;5.854;2023-04-15T02:39:56;100433.06;;;12.33;51.37
70229;BME280;57617;51.988;5.854;2023-04-15T02:42:21;100441.41;;;12.22;51.75
70229;BME280;57617;51.988;5.854;2023-04-15T02:44:46;100441.03;;;12.08;51.78
70229;BME280;57617;51.988;5.854;2023-04-15T02:47:11;100452.94;;;12.02;52.17
70229;BME280;57617;51.988;5.854;2023-04-15T02:49:38;100456.72;;;11.96;52.11
70229;BME280;57617;51.988;5.854;2023-04-15T02:52:04;100455.63;;;11.97;51.86
70229;BME280;57617;51.988;5.854;2023-04-15T02:54:30;100450.69;;;11.94;51.93
70229;BME280;57617;51.988;5.854;2023-04-15T02:56:58;100456.13;;;11.94;52.50
70229;BME280;57617;51.988;5.854;2023-04-15T02:59:23;100454.19;;;11.90;52.43
70229;BME280;57617;51.988;5.854;2023-04-15T03:01:48;100461.53;;;11.89;52.38
70229;BME280;57617;51.988;5.854;2023-04-15T03:04:13;100448.75;;;11.90;52.29
70229;BME280;57617;51.988;5.854;2023-04-15T03:06:39;100447.13;;;11.89;52.32
70229;BME280;57617;51.988;5.854;2023-04-15T03:09:04;100457.69;;;11.85;52.06
70229;BME280;57617;51.988;5.854;2023-04-15T03:11:30;100448.91;;;11.78;52.45
70229;BME280;57617;51.988;5.854;2023-04-15T03:13:56;100457.84;;;11.74;52.89
70229;BME280;57617;51.988;5.854;2023-04-15T03:16:22;100458.59;;;11.69;52.69
70229;BME280;57617;51.988;5.854;2023-04-15T03:18:48;100463.72;;;11.66;52.76
70229;BME280;57617;51.988;5.854;2023-04-15T03:21:13;100452.84;;;11.66;53.13
70229;BME280;57617;51.988;5.854;2023-04-15T03:23:38;100461.53;;;11.63;53.60
70229;BME280;57617;51.988;5.854;2023-04-15T03:26:04;100457.84;;;11.52;53.33
70229;BME280;57617;51.988;5.854;2023-04-15T03:28:30;100461.41;;;11.53;53.58
70229;BME280;57617;51.988;5.854;2023-04-15T03:30:55;100468.22;;;11.55;53.34
70229;BME280;57617;51.988;5.854;2023-04-15T03:33:20;100475.25;;;11.51;53.58
70229;BME280;57617;51.988;5.854;2023-04-15T03:35:45;100464.31;;;11.46;53.67
70229;BME280;57617;51.988;5.854;2023-04-15T03:38:11;100473.84;;;11.49;53.67
70229;BME280;57617;51.988;5.854;2023-04-15T03:40:37;100477.97;;;11.51;54.03
70229;BME280;57617;51.988;5.854;2023-04-15T03:43:03;100481.78;;;11.50;53.54
70229;BME280;57617;51.988;5.854;2023-04-15T03:45:28;100481.19;;;11.48;53.90
70229;BME280;57617;51.988;5.854;2023-04-15T03:47:53;100482.03;;;11.49;53.64
70229;BME280;57617;51.988;5.854;2023-04-15T03:50:19;100480.13;;;11.49;53.74
70229;BME280;57617;51.988;5.854;2023-04-15T03:52:44;100488.47;;;11.43;54.17
70229;BME280;57617;51.988;5.854;2023-04-15T03:55:10;100486.00;;;11.41;54.14
70229;BME280;57617;51.988;5.854;2023-04-15T03:57:35;100489.81;;;11.40;54.16
70229;BME280;57617;51.988;5.854;2023-04-15T04:00:07;100491.44;;;11.41;54.86
70229;BME280;57617;51.988;5.854;2023-04-15T04:02:33;100490.63;;;11.41;54.27
70229;BME280;57617;51.988;5.854;2023-04-15T04:04:59;100496.63;;;11.43;54.02
70229;BME280;57617;51.988;5.854;2023-04-15T04:07:24;100503.66;;;11.39;54.18
70229;BME280;57617;51.988;5.854;2023-04-15T04:09:49;100503.59;;;11.34;54.88
70229;BME280;57617;51.988;5.854;2023-04-15T04:12:15;100514.66;;;11.27;54.71
70229;BME280;57617;51.988;5.854;2023-04-15T04:14:40;100512.09;;;11.21;54.90
70229;BME280;57617;51.988;5.854;2023-04-15T04:17:06;100501.31;;;11.04;54.82
70229;BME280;57617;51.988;5.854;2023-04-15T04:19:31;100519.88;;;11.12;55.04
70229;BME280;57617;51.988;5.854;2023-04-15T04:21:57;100517.41;;;11.11;55.07
70229;BME280;57617;51.988;5.854;2023-04-15T04:24:22;100519.81;;;11.07;55.06
70229;BME280;57617;51.988;5.854;2023-04-15T04:26:47;100533.91;;;11.04;55.34
70229;BME280;57617;51.988;5.854;2023-04-15T04:29:12;100534.41;;;11.01;55.45
70229;BME280;57617;51.988;5.854;2023-04-15T04:31:38;100537.63;;;10.98;55.67
70229;BME280;57617;51.988;5.854;2023-04-15T04:34:03;100533.25;;;10.97;55.70
70229;BME280;57617;51.988;5.854;2023-04-15T04:36:28;100538.69;;;10.97;55.75
70229;BME280;57617;51.988;5.854;2023-04-15T04:38:54;100544.97;;;10.98;55.64
70229;BME280;57617;51.988;5.854;2023-04-15T04:41:19;100534.03;;;10.93;55.68
70229;BME280;57617;51.988;5.854;2023-04-15T04:43:45;100552.19;;;10.92;55.88
70229;BME280;57617;51.988;5.854;2023-04-15T04:46:11;100552.47;;;10.91;55.84
70229;BME280;57617;51.988;5.854;2023-04-15T04:48:36;100547.28;;;10.89;56.29
70229;BME280;57617;51.988;5.854;2023-04-15T04:51:02;100555.19;;;10.91;56.17
70229;BME280;57617;51.988;5.854;2023-04-15T04:53:27;100561.44;;;10.91;55.97
70229;BME280;57617;51.988;5.854;2023-04-15T04:55:52;100564.66;;;10.88;56.45
70229;BME280;57617;51.988;5.854;2023-04-15T04:58:18;100569.75;;;10.85;56.61
70229;BME280;57617;51.988;5.854;2023-04-15T05:00:43;100572.13;;;10.81;56.73
70229;BME280;57617;51.988;5.854;2023-04-15T05:03:09;100578.09;;;10.78;56.68
70229;BME280;57617;51.988;5.854;2023-04-15T05:05:34;100577.50;;;10.76;56.80
70229;BME280;57617;51.988;5.854;2023-04-15T05:08:01;100581.03;;;10.77;56.76
70229;BME280;57617;51.988;5.854;2023-04-15T05:10:26;100584.56;;;10.77;57.35
70229;BME280;57617;51.988;5.854;2023-04-15T05:12:51;100591.06;;;10.76;57.16
70229;BME280;57617;51.988;5.854;2023-04-15T05:15:17;100590.28;;;10.76;56.85
70229;BME280;57617;51.988;5.854;2023-04-15T05:17:42;100587.03;;;10.79;56.92
70229;BME280;57617;51.988;5.854;2023-04-15T05:20:07;100605.81;;;10.80;57.35
70229;BME280;57617;51.988;5.854;2023-04-15T05:22:33;100604.66;;;10.76;57.22
70229;BME280;57617;51.988;5.854;2023-04-15T05:24:59;100598.16;;;10.77;57.45
70229;BME280;57617;51.988;5.854;2023-04-15T05:27:24;100608.53;;;10.80;57.57
70229;BME280;57617;51.988;5.854;2023-04-15T05:29:50;100608.78;;;10.79;57.55
70229;BME280;57617;51.988;5.854;2023-04-15T05:32:15;100614.53;;;10.82;57.49
70229;BME280;57617;51.988;5.854;2023-04-15T05:34:40;100618.41;;;10.86;57.66
70229;BME280;57617;51.988;5.854;2023-04-15T05:37:06;100625.47;;;10.87;57.59
70229;BME280;57617;51.988;5.854;2023-04-15T05:39:31;100623.59;;;10.88;57.62
70229;BME280;57617;51.988;5.854;2023-04-15T05:41:58;100631.59;;;10.94;57.86
70229;BME280;57617;51.988;5.854;2023-04-15T05:44:24;100628.81;;;11.06;57.92
70229;BME280;57617;51.988;5.854;2023-04-15T05:46:49;100633.97;;;11.24;57.89
70229;BME280;57617;51.988;5.854;2023-04-15T05:49:14;100630.63;;;11.38;57.85
70229;BME280;57617;51.988;5.854;2023-04-15T05:51:40;100635.72;;;11.51;58.04
70229;BME280;57617;51.988;5.854;2023-04-15T05:54:05;100633.63;;;11.58;57.66
70229;BME280;57617;51.988;5.854;2023-04-15T05:56:30;100639.75;;;11.65;57.14
70229;BME280;57617;51.988;5.854;2023-04-15T05:58:56;100637.56;;;11.84;57.76
70229;BME280;57617;51.988;5.854;2023-04-15T06:01:21;100643.38;;;12.14;57.42
70229;BME280;57617;51.988;5.854;2023-04-15T06:03:47;100640.88;;;12.34;57.13
70229;BME280;57617;51.988;5.854;2023-04-15T06:06:12;100640.75;;;12.50;56.52
70229;BME280;57617;51.988;5.854;2023-04-15T06:08:38;100647.88;;;12.56;56.57
70229;BME280;57617;51.988;5.854;2023-04-15T06:11:03;100647.09;;;12.56;56.38
70229;BME280;57617;51.988;5.854;2023-04-15T06:13:29;100650.94;;;12.60;56.72
70229;BME280;57617;51.988;5.854;2023-04-15T06:15:54;100663.28;;;12.67;56.47
70229;BME280;57617;51.988;5.854;2023-04-15T06:18:19;100667.44;;;12.75;55.96
70229;BME280;57617;51.988;5.854;2023-04-15T06:20:45;100670.16;;;12.75;56.38
70229;BME280;57617;51.988;5.854;2023-04-15T06:23:10;100669.63;;;12.78;55.98
70229;BME280;57617;51.988;5.854;2023-04-15T06:25:36;100682.72;;;12.76;56.36
70229;BME280;57617;51.988;5.854;2023-04-15T06:28:01;100672.91;;;12.75;56.19
70229;BME280;57617;51.988;5.854;2023-04-15T06:30:26;100689.75;;;12.72;56.25
70229;BME280;57617;51.988;5.854;2023-04-15T06:32:52;100698.44;;;12.69;56.54
70229;BME280;57617;51.988;5.854;2023-04-15T06:35:18;100700.59;;;12.67;56.61
70229;BME280;57617;51.988;5.854;2023-04-15T06:37:44;100690.78;;;12.66;56.32
70229;BME280;57617;51.988;5.854;2023-04-15T06:40:09;100708.72;;;12.62;56.49
70229;BME280;57617;51.988;5.854;2023-04-15T06:42:35;100707.63;;;12.63;56.15
70229;BME280;57617;51.988;5.854;2023-04-15T06:45:02;100715.19;;;12.56;56.53
70229;BME280;57617;51.988;5.854;2023-04-15T06:47:27;100722.78;;;12.54;56.64
70229;BME280;57617;51.988;5.854;2023-04-15T06:49:53;100722.03;;;12.58;56.37
70229;BME280;57617;51.988;5.854;2023-04-15T06:52:18;100722.91;;;12.64;56.20
70229;BME280;57617;51.988;5.854;2023-04-15T06:54:43;100725.91;;;12.62;55.93
70229;BME280;57617;51.988;5.854;2023-04-15T06:57:09;100724.81;;;12.63;55.99
70229;BME280;57617;51.988;5.854;2023-04-15T06:59:34;100732.75;;;12.65;56.33
70229;BME280;57617;51.988;5.854;2023-04-15T07:02:00;100736.84;;;12.67;56.18
70229;BME280;57617;51.988;5.854;2023-04-15T07:04:25;100727.44;;;12.53;56.21
70229;BME280;57617;51.988;5.854;2023-04-15T07:06:51;100748.56;;;12.68;56.35
70229;BME280;57617;51.988;5.854;2023-04-15T07:09:18;100750.19;;;12.69;56.45
70229;BME280;57617;51.988;5.854;2023-04-15T07:11:43;100753.25;;;12.72;56.23
70229;BME280;57617;51.988;5.854;2023-04-15T07:14:09;100756.00;;;12.72;56.24
70229;BME280;57617;51.988;5.854;2023-04-15T07:16:34;100750.19;;;12.69;56.44
70229;BME280;57617;51.988;5.854;2023-04-15T07:18:59;100752.94;;;12.69;56.38
70229;BME280;57617;51.988;5.854;2023-04-15T07:21:25;100770.38;;;12.68;56.30
70229;BME280;57617;51.988;5.854;2023-04-15T07:23:51;100768.97;;;12.65;56.17
70229;BME280;57617;51.988;5.854;2023-04-15T07:26:16;100761.88;;;12.64;56.40
70229;BME280;57617;51.988;5.854;2023-04-15T07:28:42;100768.16;;;12.65;55.89
70229;BME280;57617;51.988;5.854;2023-04-15T07:31:07;100767.03;;;12.61;56.37
70229;BME280;57617;51.988;5.854;2023-04-15T07:33:33;100760.63;;;12.50;56.07
70229;BME280;57617;51.988;5.854;2023-04-15T07:35:58;100781.78;;;12.65;56.86
70229;BME280;57617;51.988;5.854;2023-04-15T07:38:23;100784.81;;;12.68;55.86
70229;BME280;57617;51.988;5.854;2023-04-15T07:40:48;100762.91;;;12.58;56.21
70229;BME280;57617;51.988;5.854;2023-04-15T07:43:14;100796.34;;;12.75;55.80
70229;BME280;57617;51.988;5.854;2023-04-15T07:45:40;100791.19;;;12.79;56.04
70229;BME280;57617;51.988;5.854;2023-04-15T07:48:05;100796.16;;;12.82;56.33
70229;BME280;57617;51.988;5.854;2023-04-15T07:50:30;100799.19;;;12.85;55.83
70229;BME280;57617;51.988;5.854;2023-04-15T07:52:56;100804.63;;;12.85;55.89
70229;BME280;57617;51.988;5.854;2023-04-15T07:55:22;100801.34;;;12.83;56.29
70229;BME280;57617;51.988;5.854;2023-04-15T07:57:48;100801.91;;;12.85;55.94
70229;BME280;57617;51.988;5.854;2023-04-15T08:00:14;100798.94;;;12.87;55.57
70229;BME280;57617;51.988;5.854;2023-04-15T08:02:40;100805.00;;;12.94;55.84
70229;BME280;57617;51.988;5.854;2023-04-15T08:05:07;100813.31;;;13.04;55.79
70229;BME280;57617;51.988;5.854;2023-04-15T08:07:33;100812.81;;;13.07;55.72
70229;BME280;57617;51.988;5.854;2023-04-15T08:09:58;100808.28;;;13.17;55.85
70229;BME280;57617;51.988;5.854;2023-04-15T08:12:24;100817.09;;;13.24;55.53
70229;BME280;57617;51.988;5.854;2023-04-15T08:14:50;100814.97;;;13.31;55.76
70229;BME280;57617;51.988;5.854;2023-04-15T08:17:15;100812.84;;;13.38;55.40
70229;BME280;57617;51.988;5.854;2023-04-15T08:19:41;100812.38;;;13.46;55.40
70229;BME280;57617;51.988;5.854;2023-04-15T08:22:06;100814.66;;;13.54;55.07
70229;BME280;57617;51.988;5.854;2023-04-15T08:24:32;100814.69;;;13.59;55.02
70229;BME280;57617;51.988;5.854;2023-04-15T08:26:58;100815.00;;;13.63;55.35
70229;BME280;57617;51.988;5.854;2023-04-15T08:29:24;100815.53;;;13.65;54.79
70229;BME280;57617;51.988;5.854;2023-04-15T08:31:49;100815.06;;;13.73;55.04
70229;BME280;57617;51.988;5.854;2023-04-15T08:34:14;100823.91;;;13.85;54.62
70229;BME280;57617;51.988;5.854;2023-04-15T08:36:40;100819.88;;;13.97;54.55
70229;BME280;57617;51.988;5.854;2023-04-15T08:39:05;100822.09;;;14.00;54.23
70229;BME280;57617;51.988;5.854;2023-04-15T08:41:45;100836.34;;;14.07;53.34
70229;BME280;57617;51.988;5.854;2023-04-15T08:44:13;100839.88;;;14.03;53.58
70229;BME280;57617;51.988;5.854;2023-04-15T08:46:40;100840.44;;;14.05;53.87
70229;BME280;57617;51.988;5.854;2023-04-15T08:49:09;100847.31;;;14.12;53.74
70229;BME280;57617;51.988;5.854;2023-04-15T08:51:36;100850.59;;;14.14;53.85
70229;BME280;57617;51.988;5.854;2023-04-15T08:54:02;100841.84;;;14.12;53.64
70229;BME280;57617;51.988;5.854;2023-04-15T08:56:30;100849.25;;;14.17;53.16
70229;BME280;57617;51.988;5.854;2023-04-15T08:58:59;100842.66;;;14.13;53.28
70229;BME280;57617;51.988;5.854;2023-04-15T09:01:25;100861.31;;;14.21;53.31
70229;BME280;57617;51.988;5.854;2023-04-15T09:03:51;100852.91;;;14.27;53.03
70229;BME280;57617;51.988;5.854;2023-04-15T09:06:17;100860.56;;;14.30;53.13
70229;BME280;57617;51.988;5.854;2023-04-15T09:08:43;100865.56;;;14.43;52.38
70229;BME280;57617;51.988;5.854;2023-04-15T09:11:08;100872.91;;;14.38;52.62
70229;BME280;57617;51.988;5.854;2023-04-15T09:13:34;100872.38;;;14.41;53.01
70229;BME280;57617;51.988;5.854;2023-04-15T09:16:04;100859.53;;;14.36;52.51
70229;BME280;57617;51.988;5.854;2023-04-15T09:18:31;100850.72;;;14.29;52.81
70229;BME280;57617;51.988;5.854;2023-04-15T09:21:08;100889.69;;;14.56;52.45
70229;BME280;57617;51.988;5.854;2023-04-15T09:23:36;100877.66;;;14.52;52.10
70229;BME280;57617;51.988;5.854;2023-04-15T09:26:03;100889.09;;;14.49;52.35
70229;BME280;57617;51.988;5.854;2023-04-15T09:28:28;100889.66;;;14.51;52.63
70229;BME280;57617;51.988;5.854;2023-04-15T09:30:58;100892.44;;;14.61;52.62
70229;BME280;57617;51.988;5.854;2023-04-15T09:33:24;100889.78;;;14.71;52.48
70229;BME280;57617;51.988;5.854;2023-04-15T09:36:01;100894.47;;;14.81;52.23
70229;BME280;57617;51.988;5.854;2023-04-15T09:38:27;100892.06;;;14.94;52.52
70229;BME280;57617;51.988;5.854;2023-04-15T09:40:52;100897.06;;;15.12;52.35
70229;BME280;57617;51.988;5.854;2023-04-15T09:43:18;100891.63;;;15.27;51.81
70229;BME280;57617;51.988;5.854;2023-04-15T09:45:47;100891.72;;;15.42;51.59
70229;BME280;57617;51.988;5.854;2023-04-15T09:48:23;100898.84;;;15.53;51.46
70229;BME280;57617;51.988;5.854;2023-04-15T09:50:53;100899.97;;;15.62;52.12
70229;BME280;57617;51.988;5.854;2023-04-15T09:53:23;100904.09;;;15.75;51.44
70229;BME280;57617;51.988;5.854;2023-04-15T09:55:53;100893.41;;;15.78;51.68
70229;BME280;57617;51.988;5.854;2023-04-15T09:58:27;100903.25;;;15.84;51.00
70229;BME280;57617;51.988;5.854;2023-04-15T10:00:54;100910.69;;;15.84;51.17
70229;BME280;57617;51.988;5.854;2023-04-15T10:05:48;100914.78;;;15.91;51.09
70229;BME280;57617;51.988;5.854;2023-04-15T10:08:16;100908.50;;;15.96;51.05
70229;BME280;57617;51.988;5.854;2023-04-15T10:10:42;100904.09;;;16.00;50.71
70229;BME280;57617;51.988;5.854;2023-04-15T10:13:08;100908.22;;;16.07;50.60
70229;BME280;57617;51.988;5.854;2023-04-15T10:15:34;100916.44;;;16.17;50.68
70229;BME280;57617;51.988;5.854;2023-04-15T10:18:00;100907.66;;;16.30;50.37
70229;BME280;57617;51.988;5.854;2023-04-15T10:20:27;100922.19;;;16.51;49.59
70229;BME280;57617;51.988;5.854;2023-04-15T10:22:53;100910.38;;;16.55;49.95
70229;BME280;57617;51.988;5.854;2023-04-15T10:25:19;100929.81;;;16.69;49.60
70229;BME280;57617;51.988;5.854;2023-04-15T10:27:45;100925.66;;;16.81;49.28
70229;BME280;57617;51.988;5.854;2023-04-15T10:30:12;100920.44;;;16.95;49.09
70229;BME280;57617;51.988;5.854;2023-04-15T10:32:39;100921.47;;;17.04;48.83
70229;BME280;57617;51.988;5.854;2023-04-15T10:35:05;100920.88;;;17.22;49.13
70229;BME280;57617;51.988;5.854;2023-04-15T10:37:35;100923.84;;;17.30;48.50
70229;BME280;57617;51.988;5.854;2023-04-15T10:40:29;100923.00;;;17.40;48.56
70229;BME280;57617;51.988;5.854;2023-04-15T10:43:00;100933.13;;;17.50;48.70
70229;BME280;57617;51.988;5.854;2023-04-15T10:45:27;100932.88;;;17.46;48.16
70229;BME280;57617;51.988;5.854;2023-04-15T10:47:57;100929.56;;;17.44;46.74
70229;BME280;57617;51.988;5.854;2023-04-15T10:50:24;100928.78;;;17.39;47.26
70229;BME280;57617;51.988;5.854;2023-04-15T10:52:51;100933.38;;;17.53;47.59
70229;BME280;57617;51.988;5.854;2023-04-15T10:55:25;100941.56;;;17.63;46.48
70229;BME280;57617;51.988;5.854;2023-04-15T10:57:52;100944.28;;;17.68;46.96
70229;BME280;57617;51.988;5.854;2023-04-15T11:00:20;100942.59;;;17.72;47.04
70229;BME280;57617;51.988;5.854;2023-04-15T11:03:05;100944.50;;;17.77;44.45
70229;BME280;57617;51.988;5.854;2023-04-15T11:08:05;100948.06;;;17.77;46.09
70229;BME280;57617;51.988;5.854;2023-04-15T11:12:59;100942.47;;;17.92;46.32
70229;BME280;57617;51.988;5.854;2023-04-15T11:15:33;100942.97;;;17.99;44.69
70229;BME280;57617;51.988;5.854;2023-04-15T11:18:11;100937.22;;;17.96;44.89
70229;BME280;57617;51.988;5.854;2023-04-15T11:20:38;100951.22;;;17.99;45.47
70229;BME280;57617;51.988;5.854;2023-04-15T11:23:05;100946.50;;;17.99;45.33
70229;BME280;57617;51.988;5.854;2023-04-15T11:25:31;100947.69;;;17.88;45.58
70229;BME280;57617;51.988;5.854;2023-04-15T11:27:58;100923.72;;;17.61;45.19
70229;BME280;57617;51.988;5.854;2023-04-15T11:30:26;100961.53;;;17.73;45.35
70229;BME280;57617;51.988;5.854;2023-04-15T11:32:55;100943.81;;;17.51;45.39
70229;BME280;57617;51.988;5.854;2023-04-15T11:35:22;100955.59;;;17.57;45.37
70229;BME280;57617;51.988;5.854;2023-04-15T11:37:48;100958.81;;;17.68;45.47
70229;BME280;57617;51.988;5.854;2023-04-15T11:40:21;100964.25;;;17.78;45.07
70229;BME280;57617;51.988;5.854;2023-04-15T11:43:15;100963.94;;;17.85;44.61
70229;BME280;57617;51.988;5.854;2023-04-15T11:45:54;100963.84;;;18.00;43.73
70229;BME280;57617;51.988;5.854;2023-04-15T11:48:22;100972.66;;;17.97;45.05
70229;BME280;57617;51.988;5.854;2023-04-15T11:51:05;100973.97;;;18.04;44.77
70229;BME280;57617;51.988;5.854;2023-04-15T11:53:42;100979.44;;;18.09;43.28
70229;BME280;57617;51.988;5.854;2023-04-15T11:56:10;100967.13;;;18.02;44.02
70229;BME280;57617;51.988;5.854;2023-04-15T11:58:36;100970.38;;;18.09;43.96
70229;BME280;57617;51.988;5.854;2023-04-15T12:01:03;100990.91;;;18.22;43.91
70229;BME280;57617;51.988;5.854;2023-04-15T12:03:30;100979.00;;;18.31;43.91
70229;BME280;57617;51.988;5.854;2023-04-15T12:09:00;100985.84;;;18.39;42.12
70229;BME280;57617;51.988;5.854;2023-04-15T12:13:57;100982.41;;;18.57;42.90
70229;BME280;57617;51.988;5.854;2023-04-15T12:16:23;100991.81;;;18.46;42.95
70229;BME280;57617;51.988;5.854;2023-04-15T12:18:53;100988.91;;;18.32;43.06
70229;BME280;57617;51.988;5.854;2023-04-15T12:21:21;100995.56;;;18.21;43.86
70229;BME280;57617;51.988;5.854;2023-04-15T12:23:52;101000.59;;;18.14;42.86
70229;BME280;57617;51.988;5.854;2023-04-15T12:26:24;101008.16;;;18.32;42.41
70229;BME280;57617;51.988;5.854;2023-04-15T12:28:54;101001.84;;;18.32;43.14
70229;BME280;57617;51.988;5.854;2023-04-15T12:31:21;101010.09;;;18.37;42.76
70229;BME280;57617;51.988;5.854;2023-04-15T12:33:48;101017.25;;;18.33;43.13
70229;BME280;57617;51.988;5.854;2023-04-15T12:36:14;101017.50;;;18.31;43.38
70229;BME280;57617;51.988;5.854;2023-04-15T12:38:39;101014.50;;;18.27;43.37
70229;BME280;57617;51.988;5.854;2023-04-15T12:41:04;101015.88;;;18.30;43.53
70229;BME280;57617;51.988;5.854;2023-04-15T12:43:30;101021.91;;;18.32;43.62
70229;BME280;57617;51.988;5.854;2023-04-15T12:45:55;101033.31;;;18.16;44.07
70229;BME280;57617;51.988;5.854;2023-04-15T12:48:20;101036.66;;;18.08;44.08
70229;BME280;57617;51.988;5.854;2023-04-15T12:50:46;101043.00;;;18.03;44.03
70229;BME280;57617;51.988;5.854;2023-04-15T12:53:11;101041.16;;;17.88;44.06
70229;BME280;57617;51.988;5.854;2023-04-15T12:55:37;101041.69;;;17.91;44.12
70229;BME280;57617;51.988;5.854;2023-04-15T12:58:02;101044.66;;;18.04;44.46
70229;BME280;57617;51.988;5.854;2023-04-15T13:00:27;101051.78;;;18.05;43.85